createdAt,value
2022-08-26T00:04:55.592Z,17.00
2022-08-26T00:09:57.117Z,16.02
2022-08-26T00:14:59.325Z,13.15
2022-08-26T00:20:02.935Z,14.70
2022-08-26T00:25:05.420Z,13.23
2022-08-26T00:30:12.249Z,15.27
2022-08-26T00:35:15.341Z,19.67
2022-08-26T00:40:22.098Z,13.15
2022-08-26T00:45:24.261Z,12.68
2022-08-26T00:50:31.488Z,12.65
2022-08-26T00:55:39.467Z,19.60
2022-08-26T01:00:41.691Z,15.55
2022-08-26T01:05:47.098Z,11.00
2022-08-26T01:10:48.776Z,13.70
2022-08-26T01:15:56.209Z,12.27
2022-08-26T01:21:36.292Z,12.05
2022-08-26T01:26:44.619Z,15.55
2022-08-26T01:31:51.111Z,18.50
2022-08-26T01:37:07.962Z,11.02
2022-08-26T01:42:15.244Z,14.13
2022-08-26T01:47:18.328Z,17.35
2022-08-26T01:52:27.992Z,15.75
2022-08-26T01:57:30.904Z,18.00
2022-08-26T02:02:32.421Z,17.13
2022-08-26T02:07:34.389Z,20.55
2022-08-26T02:12:37.029Z,16.17
2022-08-26T02:17:45.599Z,13.27
2022-08-26T02:22:47.724Z,15.93
2022-08-26T02:27:49.716Z,15.45
2022-08-26T02:32:51.861Z,16.50
2022-08-26T02:37:54.009Z,18.90
2022-08-26T02:42:55.953Z,15.88
2022-08-26T02:47:59.647Z,14.95
2022-08-26T02:53:01.609Z,15.60
2022-08-26T02:58:04.304Z,17.75
2022-08-26T03:03:06.168Z,20.92
2022-08-26T03:08:08.743Z,18.83
2022-08-26T03:13:11.153Z,13.45
2022-08-26T03:18:13.215Z,23.67
2022-08-26T03:23:14.771Z,15.32
2022-08-26T03:28:16.389Z,18.77
2022-08-26T03:33:21.405Z,17.55
2022-08-26T03:38:25.050Z,20.13
2022-08-26T03:43:27.062Z,17.80
2022-08-26T03:48:28.573Z,17.90
2022-08-26T03:53:31.829Z,17.38
2022-08-26T03:58:33.613Z,14.95
2022-08-26T04:03:53.524Z,15.63
2022-08-26T04:08:56.845Z,17.80
2022-08-26T04:14:00.623Z,21.55
2022-08-26T04:19:02.263Z,17.40
2022-08-26T04:24:06.389Z,16.08
2022-08-26T04:29:13.114Z,15.57
2022-08-26T04:34:15.018Z,18.80
2022-08-26T04:39:16.826Z,18.98
2022-08-26T04:44:21.059Z,19.15
2022-08-26T04:49:23.248Z,14.57
2022-08-26T04:54:27.671Z,20.27
2022-08-26T04:59:30.027Z,21.25
2022-08-26T05:04:31.524Z,21.67
2022-08-26T05:09:33.267Z,13.50
2022-08-26T05:14:35.201Z,17.48
2022-08-26T05:19:37.323Z,17.65
2022-08-26T05:24:47.186Z,16.23
2022-08-26T05:29:48.773Z,20.08
2022-08-26T05:34:57.039Z,17.77
2022-08-26T05:40:03.779Z,19.50
2022-08-26T05:45:06.006Z,21.15
2022-08-26T05:50:08.606Z,18.65
2022-08-26T05:55:10.138Z,25.55
2022-08-26T06:00:15.396Z,16.95
2022-08-26T06:05:17.058Z,21.92
2022-08-26T06:10:32.115Z,22.60
2022-08-26T06:15:35.422Z,21.38
2022-08-26T06:20:37.216Z,22.73
2022-08-26T06:25:39.468Z,20.33
2022-08-26T06:30:42.522Z,23.55
2022-08-26T06:35:45.547Z,19.65
2022-08-26T06:40:50.649Z,28.88
2022-08-26T06:45:52.560Z,18.50
2022-08-26T06:51:06.947Z,20.25
2022-08-26T06:56:10.670Z,19.92
2022-08-26T07:01:37.356Z,22.88
2022-08-26T07:06:47.032Z,21.25
2022-08-26T07:11:49.269Z,26.23
2022-08-26T07:16:51.136Z,25.10
2022-08-26T07:21:52.673Z,24.23
2022-08-26T07:27:08.584Z,22.48
2022-08-26T07:32:13.197Z,21.88
2022-08-26T07:37:17.504Z,25.08
2022-08-26T07:42:20.340Z,22.55
2022-08-26T07:47:24.828Z,25.35
2022-08-26T07:52:29.796Z,23.92
2022-08-26T07:57:31.419Z,25.13
2022-08-26T08:02:33.192Z,25.25
2022-08-26T08:07:38.628Z,22.98
2022-08-26T08:12:47.988Z,20.27
2022-08-26T08:17:51.691Z,18.48
2022-08-26T08:22:54.043Z,19.60
2022-08-26T08:27:55.531Z,22.55
2022-08-26T08:32:58.635Z,19.92
2022-08-26T08:38:04.288Z,15.73
2022-08-26T08:43:09.706Z,22.70
2022-08-26T08:53:43.152Z,20.58
2022-08-26T08:59:05.021Z,18.30
2022-08-26T09:04:17.484Z,15.93
2022-08-26T09:09:29.706Z,22.60
2022-08-26T09:14:31.753Z,18.75
2022-08-26T09:19:44.781Z,17.92
2022-08-26T09:24:49.229Z,20.58
2022-08-26T09:29:50.791Z,21.90
2022-08-26T09:35:06.167Z,18.98
2022-08-26T09:40:29.016Z,20.85
2022-08-26T09:45:30.777Z,19.20
2022-08-26T09:50:38.599Z,24.38
2022-08-26T09:55:45.297Z,20.50
2022-08-26T10:00:56.418Z,23.73
2022-08-26T10:06:17.694Z,20.45
2022-08-26T10:11:39.655Z,18.83
2022-08-26T10:16:51.426Z,21.30
2022-08-26T10:22:05.798Z,18.45
2022-08-26T10:27:33.008Z,23.63
2022-08-26T10:32:42.627Z,19.88
2022-08-26T10:37:58.421Z,27.55
2022-08-26T10:43:12.468Z,23.63
2022-08-26T10:48:27.777Z,21.92
2022-08-26T10:53:51.573Z,25.30
2022-08-26T10:59:24.226Z,20.77
2022-08-26T11:04:48.544Z,22.92
2022-08-26T11:09:50.463Z,21.42
2022-08-26T11:14:58.760Z,21.33
2022-08-26T11:20:08.991Z,19.08
2022-08-26T11:25:14.032Z,21.90
2022-08-26T11:30:15.725Z,26.42
2022-08-26T11:35:20.428Z,18.58
2022-08-26T11:40:26.604Z,20.98
2022-08-26T11:45:32.721Z,20.65
2022-08-26T11:50:34.283Z,24.10
2022-08-26T11:55:43.273Z,19.55
2022-08-26T12:01:01.133Z,19.65
2022-08-26T12:06:32.802Z,19.92
2022-08-26T12:11:37.356Z,21.25
2022-08-26T12:16:40.241Z,24.23
2022-08-26T12:21:42.623Z,20.15
2022-08-26T12:26:44.761Z,26.25
2022-08-26T12:31:46.755Z,19.55
2022-08-26T12:36:53.911Z,27.98
2022-08-26T12:41:57.197Z,20.13
2022-08-26T12:47:41.944Z,20.20
2022-08-26T12:53:03.000Z,23.17
2022-08-26T12:58:16.368Z,19.67
2022-08-26T13:03:38.935Z,20.20
2022-08-26T13:08:43.059Z,22.33
2022-08-26T13:13:45.673Z,22.20
2022-08-26T13:18:51.517Z,22.95
2022-08-26T13:23:54.046Z,22.88
2022-08-26T13:29:01.346Z,23.75
2022-08-26T13:34:04.422Z,22.73
2022-08-26T13:39:06.545Z,34.33
2022-08-26T13:44:08.164Z,23.23
2022-08-26T13:49:10.053Z,23.85
2022-08-26T13:54:11.561Z,25.15
2022-08-26T13:59:13.088Z,22.80
2022-08-26T14:04:14.658Z,21.15
2022-08-26T14:09:16.202Z,22.40
2022-08-26T14:14:17.722Z,19.10
2022-08-26T14:19:19.467Z,16.80
2022-08-26T14:24:26.128Z,24.35
2022-08-26T14:29:27.677Z,23.25
2022-08-26T14:34:29.267Z,23.20
2022-08-26T14:39:30.785Z,20.05
2022-08-26T14:44:33.439Z,20.52
2022-08-26T14:49:35.025Z,19.98
2022-08-26T14:54:37.710Z,16.88
2022-08-26T14:59:42.075Z,19.55
2022-08-26T15:04:43.659Z,14.63
2022-08-26T15:09:45.163Z,12.70
2022-08-26T15:14:46.798Z,12.75
2022-08-26T15:19:48.410Z,13.15
2022-08-26T15:24:53.590Z,14.90
2022-08-26T15:29:55.510Z,14.60
2022-08-26T15:34:57.021Z,14.23
2022-08-26T15:39:58.575Z,11.63
2022-08-26T15:45:00.378Z,11.30
2022-08-26T15:50:01.982Z,13.52
2022-08-26T16:00:10.802Z,13.70
2022-08-26T16:05:14.997Z,9.90
2022-08-26T16:10:18.443Z,9.80
2022-08-26T16:15:21.745Z,13.77
2022-08-26T16:20:23.264Z,10.32
2022-08-26T16:25:25.486Z,14.30
2022-08-26T16:30:27.423Z,10.07
2022-08-26T16:35:28.987Z,13.80
2022-08-26T16:40:31.263Z,9.00
2022-08-26T16:45:33.007Z,9.85
2022-08-26T16:50:35.498Z,10.20
2022-08-26T16:55:37.396Z,10.93
2022-08-26T17:00:39.525Z,6.47
2022-08-26T17:05:41.010Z,12.05
2022-08-26T17:15:54.020Z,10.60
2022-08-26T17:21:05.564Z,7.43
2022-08-26T17:26:07.925Z,9.05
2022-08-26T17:31:11.647Z,9.65
2022-08-26T17:36:13.769Z,8.68
2022-08-26T17:41:16.460Z,7.60
2022-08-26T17:46:18.054Z,8.35
2022-08-26T17:51:20.663Z,5.22
2022-08-26T17:56:25.897Z,12.65
2022-08-26T18:01:27.929Z,7.03
2022-08-26T18:06:30.529Z,9.55
2022-08-26T18:11:32.296Z,8.80
2022-08-26T18:16:38.168Z,9.50
2022-08-26T18:21:39.894Z,11.35
2022-08-26T18:26:48.298Z,8.68
2022-08-26T18:31:49.726Z,14.23
2022-08-26T18:36:51.313Z,13.52
2022-08-26T18:41:53.232Z,12.98
2022-08-26T18:46:54.831Z,9.00
2022-08-26T18:51:56.443Z,15.27
2022-08-26T18:56:58.400Z,7.63
2022-08-26T19:02:02.353Z,13.32
2022-08-26T19:07:05.346Z,10.75
2022-08-26T19:12:07.001Z,14.65
2022-08-26T19:17:09.313Z,12.52
2022-08-26T19:22:11.129Z,11.57
2022-08-26T19:27:14.845Z,17.70
2022-08-26T19:32:17.525Z,10.20
2022-08-26T19:37:20.164Z,14.60
2022-08-26T19:42:21.963Z,10.80
2022-08-26T19:47:23.527Z,9.57
2022-08-26T19:52:29.922Z,14.50
2022-08-26T19:57:31.759Z,10.10
2022-08-26T20:02:34.025Z,10.68
2022-08-26T20:07:36.381Z,13.57
2022-08-26T20:12:37.924Z,9.77
2022-08-26T20:17:40.619Z,14.45
2022-08-26T20:22:42.399Z,10.23
2022-08-26T20:27:44.294Z,12.27
2022-08-26T20:32:45.868Z,12.40
2022-08-26T20:37:47.636Z,12.98
2022-08-26T20:42:49.131Z,11.82
2022-08-26T20:47:50.795Z,9.75
2022-08-26T20:52:53.504Z,13.77
2022-08-26T20:57:55.317Z,13.77
2022-08-26T21:02:58.867Z,8.85
2022-08-26T21:08:00.423Z,8.88
2022-08-26T21:13:03.117Z,9.70
2022-08-26T21:18:05.284Z,14.30
2022-08-26T21:23:06.861Z,15.75
2022-08-26T21:28:08.701Z,8.75
2022-08-26T21:33:10.412Z,9.98
2022-08-26T21:38:12.001Z,9.85
2022-08-26T21:43:35.052Z,10.40
2022-08-26T21:48:35.084Z,8.63
2022-08-26T21:53:36.949Z,7.05
2022-08-26T21:58:38.831Z,11.45
2022-08-26T22:03:46.839Z,11.40
2022-08-26T22:08:49.534Z,7.53
2022-08-26T22:13:51.432Z,9.27
2022-08-26T22:18:53.252Z,14.40
2022-08-26T22:23:58.140Z,8.98
2022-08-26T22:29:01.375Z,5.45
2022-08-26T22:34:06.361Z,9.45
2022-08-26T22:39:07.875Z,9.88
2022-08-26T22:44:12.529Z,9.15
2022-08-26T22:49:16.253Z,5.97
2022-08-26T22:54:17.916Z,9.68
2022-08-26T22:59:19.471Z,10.85
2022-08-26T23:04:21.127Z,5.82
2022-08-26T23:09:22.789Z,11.35
2022-08-26T23:14:25.745Z,5.93
2022-08-26T23:19:27.296Z,6.00
2022-08-26T23:24:29.149Z,8.73
2022-08-26T23:29:30.862Z,4.60
2022-08-26T23:34:50.984Z,9.10
2022-08-26T23:39:53.224Z,10.68
2022-08-26T23:44:54.742Z,13.60
2022-08-26T23:49:56.287Z,4.72
2022-08-26T23:54:58.005Z,5.68
2022-08-26T23:59:59.893Z,9.82
